sensor_id;sensor_type;location;lat;lon;timestamp;P1;durP1;ratioP1;P2;durP2;ratioP2
70406;SDS011;57821;52.202;0.154;2022-08-11T00:02:33;4.53;;;1.95;;
70406;SDS011;57821;52.202;0.154;2022-08-11T00:05:04;10.15;;;1.88;;
70406;SDS011;57821;52.202;0.154;2022-08-11T00:07:52;6.45;;;1.95;;
70406;SDS011;57821;52.202;0.154;2022-08-11T00:10:20;6.85;;;2.60;;
70406;SDS011;57821;52.202;0.154;2022-08-11T00:12:59;5.93;;;2.03;;
70406;SDS011;57821;52.202;0.154;2022-08-11T00:15:36;6.43;;;1.80;;
70406;SDS011;57821;52.202;0.154;2022-08-11T00:18:06;8.63;;;1.90;;
70406;SDS011;57821;52.202;0.154;2022-08-11T00:20:34;7.28;;;2.10;;
70406;SDS011;57821;52.202;0.154;2022-08-11T00:23:13;4.82;;;2.03;;
70406;SDS011;57821;52.202;0.154;2022-08-11T00:28:31;7.43;;;2.40;;
70406;SDS011;57821;52.202;0.154;2022-08-11T00:31:03;8.40;;;2.55;;
70406;SDS011;57821;52.202;0.154;2022-08-11T00:33:33;7.13;;;2.00;;
70406;SDS011;57821;52.202;0.154;2022-08-11T00:36:10;4.70;;;2.17;;
70406;SDS011;57821;52.202;0.154;2022-08-11T00:38:48;6.00;;;2.17;;
70406;SDS011;57821;52.202;0.154;2022-08-11T00:41:28;5.60;;;2.13;;
70406;SDS011;57821;52.202;0.154;2022-08-11T00:44:11;6.00;;;1.92;;
70406;SDS011;57821;52.202;0.154;2022-08-11T00:46:45;8.25;;;2.47;;
70406;SDS011;57821;52.202;0.154;2022-08-11T00:49:26;6.97;;;2.33;;
70406;SDS011;57821;52.202;0.154;2022-08-11T00:55:22;4.72;;;1.83;;
70406;SDS011;57821;52.202;0.154;2022-08-11T01:04:06;6.68;;;2.33;;
70406;SDS011;57821;52.202;0.154;2022-08-11T01:29:46;6.93;;;2.35;;
70406;SDS011;57821;52.202;0.154;2022-08-11T01:35:38;7.28;;;2.85;;
70406;SDS011;57821;52.202;0.154;2022-08-11T01:44:11;8.27;;;3.17;;
70406;SDS011;57821;52.202;0.154;2022-08-11T01:47:05;6.93;;;3.00;;
70406;SDS011;57821;52.202;0.154;2022-08-11T01:49:47;8.02;;;3.03;;
70406;SDS011;57821;52.202;0.154;2022-08-11T01:52:39;9.65;;;3.08;;
70406;SDS011;57821;52.202;0.154;2022-08-11T01:55:57;7.65;;;3.10;;
70406;SDS011;57821;52.202;0.154;2022-08-11T01:58:14;7.10;;;2.65;;
70406;SDS011;57821;52.202;0.154;2022-08-11T02:01:15;6.07;;;3.00;;
70406;SDS011;57821;52.202;0.154;2022-08-11T02:06:21;9.35;;;3.83;;
70406;SDS011;57821;52.202;0.154;2022-08-11T02:09:07;6.78;;;3.80;;
70406;SDS011;57821;52.202;0.154;2022-08-11T02:11:35;8.45;;;4.03;;
70406;SDS011;57821;52.202;0.154;2022-08-11T02:14:23;8.98;;;3.67;;
70406;SDS011;57821;52.202;0.154;2022-08-11T02:25:08;8.77;;;4.65;;
70406;SDS011;57821;52.202;0.154;2022-08-11T02:27:44;11.35;;;4.72;;
70406;SDS011;57821;52.202;0.154;2022-08-11T02:30:19;11.57;;;5.05;;
70406;SDS011;57821;52.202;0.154;2022-08-11T02:33:11;10.02;;;4.72;;
70406;SDS011;57821;52.202;0.154;2022-08-11T02:35:47;10.35;;;4.45;;
70406;SDS011;57821;52.202;0.154;2022-08-11T02:38:19;9.00;;;4.60;;
70406;SDS011;57821;52.202;0.154;2022-08-11T02:41:11;11.63;;;6.65;;
70406;SDS011;57821;52.202;0.154;2022-08-11T02:43:51;11.30;;;5.55;;
70406;SDS011;57821;52.202;0.154;2022-08-11T02:46:24;13.65;;;5.80;;
70406;SDS011;57821;52.202;0.154;2022-08-11T02:49:05;9.85;;;5.78;;
70406;SDS011;57821;52.202;0.154;2022-08-11T02:51:48;14.18;;;5.93;;
70406;SDS011;57821;52.202;0.154;2022-08-11T02:59:57;12.30;;;5.43;;
70406;SDS011;57821;52.202;0.154;2022-08-11T03:05:25;11.73;;;5.30;;
70406;SDS011;57821;52.202;0.154;2022-08-11T03:13:18;11.52;;;5.32;;
70406;SDS011;57821;52.202;0.154;2022-08-11T03:16:02;9.82;;;4.82;;
70406;SDS011;57821;52.202;0.154;2022-08-11T03:18:44;10.50;;;5.43;;
70406;SDS011;57821;52.202;0.154;2022-08-11T03:21:20;9.73;;;5.30;;
70406;SDS011;57821;52.202;0.154;2022-08-11T03:24:20;10.38;;;4.93;;
70406;SDS011;57821;52.202;0.154;2022-08-11T03:26:57;10.98;;;5.32;;
70406;SDS011;57821;52.202;0.154;2022-08-11T03:32:18;13.57;;;5.88;;
70406;SDS011;57821;52.202;0.154;2022-08-11T03:34:53;12.25;;;5.97;;
70406;SDS011;57821;52.202;0.154;2022-08-11T03:42:52;12.90;;;6.50;;
70406;SDS011;57821;52.202;0.154;2022-08-11T03:48:59;11.05;;;6.75;;
70406;SDS011;57821;52.202;0.154;2022-08-11T03:51:38;18.98;;;7.82;;
70406;SDS011;57821;52.202;0.154;2022-08-11T04:11:21;26.80;;;10.70;;
70406;SDS011;57821;52.202;0.154;2022-08-11T04:30:50;29.67;;;12.27;;
70406;SDS011;57821;52.202;0.154;2022-08-11T04:45:25;24.70;;;11.27;;
70406;SDS011;57821;52.202;0.154;2022-08-11T04:48:13;25.27;;;12.60;;
70406;SDS011;57821;52.202;0.154;2022-08-11T04:50:52;25.88;;;11.60;;
70406;SDS011;57821;52.202;0.154;2022-08-11T04:54:20;23.25;;;11.95;;
70406;SDS011;57821;52.202;0.154;2022-08-11T04:56:57;22.85;;;13.52;;
70406;SDS011;57821;52.202;0.154;2022-08-11T05:02:14;25.77;;;13.32;;
70406;SDS011;57821;52.202;0.154;2022-08-11T05:10:33;26.92;;;12.93;;
70406;SDS011;57821;52.202;0.154;2022-08-11T05:13:09;36.58;;;12.48;;
70406;SDS011;57821;52.202;0.154;2022-08-11T05:15:42;20.00;;;11.25;;
70406;SDS011;57821;52.202;0.154;2022-08-11T05:18:19;21.15;;;10.98;;
70406;SDS011;57821;52.202;0.154;2022-08-11T05:20:50;20.88;;;12.50;;
70406;SDS011;57821;52.202;0.154;2022-08-11T05:23:19;20.05;;;11.15;;
70406;SDS011;57821;52.202;0.154;2022-08-11T05:25:51;18.83;;;9.95;;
70406;SDS011;57821;52.202;0.154;2022-08-11T05:28:55;15.88;;;9.98;;
70406;SDS011;57821;52.202;0.154;2022-08-11T05:31:49;16.92;;;9.73;;
70406;SDS011;57821;52.202;0.154;2022-08-11T05:34:26;15.27;;;9.27;;
70406;SDS011;57821;52.202;0.154;2022-08-11T05:37:04;16.65;;;9.30;;
70406;SDS011;57821;52.202;0.154;2022-08-11T05:39:54;16.73;;;10.35;;
70406;SDS011;57821;52.202;0.154;2022-08-11T05:42:26;17.77;;;11.77;;
70406;SDS011;57821;52.202;0.154;2022-08-11T05:45:08;18.80;;;10.23;;
70406;SDS011;57821;52.202;0.154;2022-08-11T05:47:41;19.45;;;10.32;;
70406;SDS011;57821;52.202;0.154;2022-08-11T05:50:11;19.63;;;11.15;;
70406;SDS011;57821;52.202;0.154;2022-08-11T05:52:43;17.98;;;11.20;;
70406;SDS011;57821;52.202;0.154;2022-08-11T05:55:14;22.80;;;12.23;;
70406;SDS011;57821;52.202;0.154;2022-08-11T05:57:41;25.20;;;14.30;;
70406;SDS011;57821;52.202;0.154;2022-08-11T06:00:17;18.33;;;11.02;;
70406;SDS011;57821;52.202;0.154;2022-08-11T06:02:49;22.55;;;10.88;;
70406;SDS011;57821;52.202;0.154;2022-08-11T06:05:23;24.73;;;12.90;;
70406;SDS011;57821;52.202;0.154;2022-08-11T06:08:07;25.60;;;13.23;;
70406;SDS011;57821;52.202;0.154;2022-08-11T06:10:36;20.45;;;11.18;;
70406;SDS011;57821;52.202;0.154;2022-08-11T06:13:05;17.15;;;10.52;;
70406;SDS011;57821;52.202;0.154;2022-08-11T06:15:43;21.75;;;10.75;;
70406;SDS011;57821;52.202;0.154;2022-08-11T06:18:11;20.60;;;11.70;;
70406;SDS011;57821;52.202;0.154;2022-08-11T06:20:53;18.02;;;11.68;;
70406;SDS011;57821;52.202;0.154;2022-08-11T06:23:21;18.98;;;11.07;;
70406;SDS011;57821;52.202;0.154;2022-08-11T06:25:51;20.77;;;11.32;;
70406;SDS011;57821;52.202;0.154;2022-08-11T06:28:32;22.25;;;11.77;;
70406;SDS011;57821;52.202;0.154;2022-08-11T06:31:09;15.77;;;10.98;;
70406;SDS011;57821;52.202;0.154;2022-08-11T06:33:45;20.05;;;10.45;;
70406;SDS011;57821;52.202;0.154;2022-08-11T06:44:51;13.55;;;8.75;;
70406;SDS011;57821;52.202;0.154;2022-08-11T06:47:33;18.88;;;10.23;;
70406;SDS011;57821;52.202;0.154;2022-08-11T06:50:00;13.35;;;8.45;;
70406;SDS011;57821;52.202;0.154;2022-08-11T06:52:32;16.25;;;8.60;;
70406;SDS011;57821;52.202;0.154;2022-08-11T06:55:20;15.05;;;8.05;;
70406;SDS011;57821;52.202;0.154;2022-08-11T06:58:12;12.60;;;8.00;;
70406;SDS011;57821;52.202;0.154;2022-08-11T07:00:43;13.52;;;7.57;;
70406;SDS011;57821;52.202;0.154;2022-08-11T07:03:15;16.73;;;7.35;;
70406;SDS011;57821;52.202;0.154;2022-08-11T07:05:54;11.95;;;7.38;;
70406;SDS011;57821;52.202;0.154;2022-08-11T07:14:25;15.35;;;8.07;;
70406;SDS011;57821;52.202;0.154;2022-08-11T07:17:00;13.48;;;7.78;;
70406;SDS011;57821;52.202;0.154;2022-08-11T07:19:28;12.63;;;6.95;;
70406;SDS011;57821;52.202;0.154;2022-08-11T07:21:56;13.50;;;7.70;;
70406;SDS011;57821;52.202;0.154;2022-08-11T07:24:31;12.27;;;7.40;;
70406;SDS011;57821;52.202;0.154;2022-08-11T07:27:30;14.88;;;6.68;;
70406;SDS011;57821;52.202;0.154;2022-08-11T07:30:04;12.95;;;7.13;;
70406;SDS011;57821;52.202;0.154;2022-08-11T07:32:36;15.45;;;7.57;;
70406;SDS011;57821;52.202;0.154;2022-08-11T07:35:15;19.13;;;7.80;;
70406;SDS011;57821;52.202;0.154;2022-08-11T07:37:52;16.05;;;8.80;;
70406;SDS011;57821;52.202;0.154;2022-08-11T07:40:32;16.70;;;7.70;;
70406;SDS011;57821;52.202;0.154;2022-08-11T07:43:00;19.98;;;8.32;;
70406;SDS011;57821;52.202;0.154;2022-08-11T07:45:28;19.63;;;7.95;;
70406;SDS011;57821;52.202;0.154;2022-08-11T07:47:55;15.40;;;7.60;;
70406;SDS011;57821;52.202;0.154;2022-08-11T07:50:23;14.25;;;7.03;;
70406;SDS011;57821;52.202;0.154;2022-08-11T07:52:50;13.30;;;7.32;;
70406;SDS011;57821;52.202;0.154;2022-08-11T07:55:20;10.63;;;6.30;;
70406;SDS011;57821;52.202;0.154;2022-08-11T07:58:07;12.32;;;6.63;;
70406;SDS011;57821;52.202;0.154;2022-08-11T08:00:54;15.68;;;7.90;;
70406;SDS011;57821;52.202;0.154;2022-08-11T08:03:27;16.83;;;7.88;;
70406;SDS011;57821;52.202;0.154;2022-08-11T08:05:55;19.75;;;7.60;;
70406;SDS011;57821;52.202;0.154;2022-08-11T08:08:23;13.73;;;7.40;;
70406;SDS011;57821;52.202;0.154;2022-08-11T08:10:51;12.25;;;6.93;;
70406;SDS011;57821;52.202;0.154;2022-08-11T08:13:20;15.10;;;7.22;;
70406;SDS011;57821;52.202;0.154;2022-08-11T08:15:47;11.32;;;6.28;;
70406;SDS011;57821;52.202;0.154;2022-08-11T08:18:14;15.23;;;6.90;;
70406;SDS011;57821;52.202;0.154;2022-08-11T08:20:53;15.25;;;6.90;;
70406;SDS011;57821;52.202;0.154;2022-08-11T08:23:22;13.80;;;6.10;;
70406;SDS011;57821;52.202;0.154;2022-08-11T08:25:52;12.70;;;6.85;;
70406;SDS011;57821;52.202;0.154;2022-08-11T08:28:18;14.52;;;6.63;;
70406;SDS011;57821;52.202;0.154;2022-08-11T08:30:46;11.85;;;6.70;;
70406;SDS011;57821;52.202;0.154;2022-08-11T08:35:47;10.60;;;6.10;;
70406;SDS011;57821;52.202;0.154;2022-08-11T08:38:19;13.38;;;6.25;;
70406;SDS011;57821;52.202;0.154;2022-08-11T08:40:46;14.38;;;5.63;;
70406;SDS011;57821;52.202;0.154;2022-08-11T08:43:21;15.77;;;5.25;;
70406;SDS011;57821;52.202;0.154;2022-08-11T08:45:49;12.30;;;5.93;;
70406;SDS011;57821;52.202;0.154;2022-08-11T08:48:22;14.20;;;6.18;;
70406;SDS011;57821;52.202;0.154;2022-08-11T08:51:01;14.00;;;5.80;;
70406;SDS011;57821;52.202;0.154;2022-08-11T08:53:37;10.75;;;4.68;;
70406;SDS011;57821;52.202;0.154;2022-08-11T08:56:25;10.65;;;4.97;;
70406;SDS011;57821;52.202;0.154;2022-08-11T08:58:53;9.30;;;4.78;;
70406;SDS011;57821;52.202;0.154;2022-08-11T09:01:21;8.18;;;4.00;;
70406;SDS011;57821;52.202;0.154;2022-08-11T09:03:49;10.23;;;4.70;;
70406;SDS011;57821;52.202;0.154;2022-08-11T09:06:36;9.93;;;4.00;;
70406;SDS011;57821;52.202;0.154;2022-08-11T09:09:03;14.77;;;4.30;;
70406;SDS011;57821;52.202;0.154;2022-08-11T09:11:31;13.32;;;4.53;;
70406;SDS011;57821;52.202;0.154;2022-08-11T09:13:58;15.60;;;4.78;;
70406;SDS011;57821;52.202;0.154;2022-08-11T09:16:31;11.73;;;3.95;;
70406;SDS011;57821;52.202;0.154;2022-08-11T09:18:59;11.88;;;4.20;;
70406;SDS011;57821;52.202;0.154;2022-08-11T09:21:26;12.10;;;3.55;;
70406;SDS011;57821;52.202;0.154;2022-08-11T09:24:13;9.88;;;2.85;;
70406;SDS011;57821;52.202;0.154;2022-08-11T09:26:51;12.50;;;3.17;;
70406;SDS011;57821;52.202;0.154;2022-08-11T09:29:18;9.18;;;3.10;;
70406;SDS011;57821;52.202;0.154;2022-08-11T09:31:46;6.88;;;3.30;;
70406;SDS011;57821;52.202;0.154;2022-08-11T09:34:13;9.98;;;3.25;;
70406;SDS011;57821;52.202;0.154;2022-08-11T09:36:41;8.60;;;2.90;;
70406;SDS011;57821;52.202;0.154;2022-08-11T09:39:09;9.48;;;2.90;;
70406;SDS011;57821;52.202;0.154;2022-08-11T09:41:38;6.88;;;2.53;;
70406;SDS011;57821;52.202;0.154;2022-08-11T09:44:26;8.25;;;2.50;;
70406;SDS011;57821;52.202;0.154;2022-08-11T09:46:54;11.55;;;2.67;;
70406;SDS011;57821;52.202;0.154;2022-08-11T09:49:22;7.32;;;2.65;;
70406;SDS011;57821;52.202;0.154;2022-08-11T09:51:49;15.45;;;3.47;;
70406;SDS011;57821;52.202;0.154;2022-08-11T09:54:30;11.95;;;3.33;;
70406;SDS011;57821;52.202;0.154;2022-08-11T09:56:57;8.20;;;2.03;;
70406;SDS011;57821;52.202;0.154;2022-08-11T09:59:30;8.75;;;2.13;;
70406;SDS011;57821;52.202;0.154;2022-08-11T10:01:58;9.38;;;1.65;;
70406;SDS011;57821;52.202;0.154;2022-08-11T10:04:32;8.30;;;2.00;;
70406;SDS011;57821;52.202;0.154;2022-08-11T10:07:05;11.77;;;2.25;;
70406;SDS011;57821;52.202;0.154;2022-08-11T10:09:35;6.72;;;2.05;;
70406;SDS011;57821;52.202;0.154;2022-08-11T10:12:16;8.45;;;1.95;;
70406;SDS011;57821;52.202;0.154;2022-08-11T10:14:54;6.32;;;1.70;;
70406;SDS011;57821;52.202;0.154;2022-08-11T10:17:26;8.68;;;2.00;;
70406;SDS011;57821;52.202;0.154;2022-08-11T10:20:01;11.27;;;2.22;;
70406;SDS011;57821;52.202;0.154;2022-08-11T10:22:30;10.93;;;1.70;;
70406;SDS011;57821;52.202;0.154;2022-08-11T10:24:58;10.57;;;2.00;;
70406;SDS011;57821;52.202;0.154;2022-08-11T10:27:26;9.45;;;1.60;;
70406;SDS011;57821;52.202;0.154;2022-08-11T10:30:13;5.95;;;1.63;;
70406;SDS011;57821;52.202;0.154;2022-08-11T10:32:40;8.27;;;1.38;;
70406;SDS011;57821;52.202;0.154;2022-08-11T10:35:24;6.70;;;1.83;;
70406;SDS011;57821;52.202;0.154;2022-08-11T10:37:52;8.45;;;1.80;;
70406;SDS011;57821;52.202;0.154;2022-08-11T10:40:34;9.27;;;1.58;;
70406;SDS011;57821;52.202;0.154;2022-08-11T10:43:03;4.40;;;1.45;;
70406;SDS011;57821;52.202;0.154;2022-08-11T10:45:34;11.52;;;1.90;;
70406;SDS011;57821;52.202;0.154;2022-08-11T10:48:03;9.52;;;1.73;;
70406;SDS011;57821;52.202;0.154;2022-08-11T10:50:31;4.07;;;1.45;;
70406;SDS011;57821;52.202;0.154;2022-08-11T10:52:58;15.07;;;1.90;;
70406;SDS011;57821;52.202;0.154;2022-08-11T10:55:26;13.00;;;1.70;;
70406;SDS011;57821;52.202;0.154;2022-08-11T10:57:53;9.38;;;1.27;;
70406;SDS011;57821;52.202;0.154;2022-08-11T11:00:30;15.13;;;2.72;;
70406;SDS011;57821;52.202;0.154;2022-08-11T11:02:58;7.15;;;1.30;;
70406;SDS011;57821;52.202;0.154;2022-08-11T11:05:45;8.45;;;1.45;;
70406;SDS011;57821;52.202;0.154;2022-08-11T11:08:35;7.88;;;1.55;;
70406;SDS011;57821;52.202;0.154;2022-08-11T11:11:06;4.85;;;1.52;;
70406;SDS011;57821;52.202;0.154;2022-08-11T11:13:33;11.32;;;1.52;;
70406;SDS011;57821;52.202;0.154;2022-08-11T11:16:02;9.70;;;1.50;;
70406;SDS011;57821;52.202;0.154;2022-08-11T11:18:30;5.20;;;1.25;;
70406;SDS011;57821;52.202;0.154;2022-08-11T11:23:40;5.80;;;1.45;;
70406;SDS011;57821;52.202;0.154;2022-08-11T11:37:22;7.75;;;2.15;;
70406;SDS011;57821;52.202;0.154;2022-08-11T11:39:50;7.70;;;1.77;;
70406;SDS011;57821;52.202;0.154;2022-08-11T11:42:18;4.75;;;1.17;;
70406;SDS011;57821;52.202;0.154;2022-08-11T11:44:46;9.68;;;1.63;;
70406;SDS011;57821;52.202;0.154;2022-08-11T11:47:14;5.35;;;1.50;;
70406;SDS011;57821;52.202;0.154;2022-08-11T11:49:41;5.35;;;1.48;;
70406;SDS011;57821;52.202;0.154;2022-08-11T11:52:12;7.05;;;1.75;;
70406;SDS011;57821;52.202;0.154;2022-08-11T11:54:40;8.57;;;1.50;;
70406;SDS011;57821;52.202;0.154;2022-08-11T11:57:07;5.35;;;1.65;;
70406;SDS011;57821;52.202;0.154;2022-08-11T11:59:34;8.15;;;1.67;;
70406;SDS011;57821;52.202;0.154;2022-08-11T12:02:01;5.20;;;1.75;;
70406;SDS011;57821;52.202;0.154;2022-08-11T12:04:39;9.43;;;1.60;;
70406;SDS011;57821;52.202;0.154;2022-08-11T12:07:08;7.47;;;1.50;;
70406;SDS011;57821;52.202;0.154;2022-08-11T12:09:36;9.00;;;1.50;;
70406;SDS011;57821;52.202;0.154;2022-08-11T12:12:03;9.18;;;1.50;;
70406;SDS011;57821;52.202;0.154;2022-08-11T12:14:30;5.38;;;2.17;;
70406;SDS011;57821;52.202;0.154;2022-08-11T12:16:57;6.57;;;1.30;;
70406;SDS011;57821;52.202;0.154;2022-08-11T12:19:24;7.88;;;1.90;;
70406;SDS011;57821;52.202;0.154;2022-08-11T12:21:56;6.57;;;1.50;;
70406;SDS011;57821;52.202;0.154;2022-08-11T12:24:26;7.55;;;1.65;;
70406;SDS011;57821;52.202;0.154;2022-08-11T12:26:54;5.03;;;1.92;;
70406;SDS011;57821;52.202;0.154;2022-08-11T12:29:43;8.07;;;1.60;;
70406;SDS011;57821;52.202;0.154;2022-08-11T12:32:19;6.28;;;1.38;;
70406;SDS011;57821;52.202;0.154;2022-08-11T12:34:48;7.53;;;1.50;;
70406;SDS011;57821;52.202;0.154;2022-08-11T12:37:15;4.10;;;1.20;;
70406;SDS011;57821;52.202;0.154;2022-08-11T12:39:47;6.72;;;1.67;;
70406;SDS011;57821;52.202;0.154;2022-08-11T12:42:35;6.88;;;1.58;;
70406;SDS011;57821;52.202;0.154;2022-08-11T12:45:07;7.15;;;2.05;;
70406;SDS011;57821;52.202;0.154;2022-08-11T12:47:50;4.38;;;1.55;;
70406;SDS011;57821;52.202;0.154;2022-08-11T12:50:38;7.88;;;1.40;;
70406;SDS011;57821;52.202;0.154;2022-08-11T12:53:05;14.93;;;1.80;;
70406;SDS011;57821;52.202;0.154;2022-08-11T12:55:34;7.07;;;1.70;;
70406;SDS011;57821;52.202;0.154;2022-08-11T12:58:01;6.18;;;1.52;;
70406;SDS011;57821;52.202;0.154;2022-08-11T13:00:30;6.63;;;1.58;;
70406;SDS011;57821;52.202;0.154;2022-08-11T13:02:58;8.88;;;1.40;;
70406;SDS011;57821;52.202;0.154;2022-08-11T13:05:25;8.77;;;1.77;;
70406;SDS011;57821;52.202;0.154;2022-08-11T13:07:53;5.35;;;1.40;;
70406;SDS011;57821;52.202;0.154;2022-08-11T13:10:20;4.30;;;1.60;;
70406;SDS011;57821;52.202;0.154;2022-08-11T13:12:48;4.95;;;1.80;;
70406;SDS011;57821;52.202;0.154;2022-08-11T13:15:21;6.63;;;1.90;;
70406;SDS011;57821;52.202;0.154;2022-08-11T13:17:50;5.75;;;1.50;;
70406;SDS011;57821;52.202;0.154;2022-08-11T13:20:20;4.25;;;1.50;;
70406;SDS011;57821;52.202;0.154;2022-08-11T13:22:49;7.93;;;1.42;;
70406;SDS011;57821;52.202;0.154;2022-08-11T13:25:21;5.90;;;1.70;;
70406;SDS011;57821;52.202;0.154;2022-08-11T13:27:50;4.85;;;1.52;;
70406;SDS011;57821;52.202;0.154;2022-08-11T13:30:24;6.43;;;1.58;;
70406;SDS011;57821;52.202;0.154;2022-08-11T13:35:20;5.75;;;1.40;;
70406;SDS011;57821;52.202;0.154;2022-08-11T13:37:48;5.53;;;1.50;;
70406;SDS011;57821;52.202;0.154;2022-08-11T13:40:36;5.70;;;1.73;;
70406;SDS011;57821;52.202;0.154;2022-08-11T13:43:21;4.90;;;1.40;;
70406;SDS011;57821;52.202;0.154;2022-08-11T13:45:49;4.15;;;1.23;;
70406;SDS011;57821;52.202;0.154;2022-08-11T13:48:18;8.40;;;1.63;;
70406;SDS011;57821;52.202;0.154;2022-08-11T13:50:45;4.63;;;1.40;;
70406;SDS011;57821;52.202;0.154;2022-08-11T13:53:15;6.72;;;1.58;;
70406;SDS011;57821;52.202;0.154;2022-08-11T13:55:45;6.72;;;1.50;;
70406;SDS011;57821;52.202;0.154;2022-08-11T13:58:17;7.18;;;1.25;;
70406;SDS011;57821;52.202;0.154;2022-08-11T14:01:05;7.25;;;1.30;;
70406;SDS011;57821;52.202;0.154;2022-08-11T14:03:52;11.85;;;1.73;;
70406;SDS011;57821;52.202;0.154;2022-08-11T14:06:40;8.13;;;1.33;;
70406;SDS011;57821;52.202;0.154;2022-08-11T14:09:17;4.82;;;1.40;;
70406;SDS011;57821;52.202;0.154;2022-08-11T14:11:50;3.60;;;1.23;;
70406;SDS011;57821;52.202;0.154;2022-08-11T14:14:42;6.30;;;1.40;;
70406;SDS011;57821;52.202;0.154;2022-08-11T14:17:14;7.60;;;1.40;;
70406;SDS011;57821;52.202;0.154;2022-08-11T14:20:06;5.25;;;1.60;;
70406;SDS011;57821;52.202;0.154;2022-08-11T14:22:55;7.60;;;1.50;;
70406;SDS011;57821;52.202;0.154;2022-08-11T14:25:22;5.72;;;1.40;;
70406;SDS011;57821;52.202;0.154;2022-08-11T14:28:09;4.65;;;1.10;;
70406;SDS011;57821;52.202;0.154;2022-08-11T14:30:56;4.07;;;1.33;;
70406;SDS011;57821;52.202;0.154;2022-08-11T14:33:27;5.00;;;1.42;;
70406;SDS011;57821;52.202;0.154;2022-08-11T14:36:15;4.45;;;1.40;;
70406;SDS011;57821;52.202;0.154;2022-08-11T14:38:42;5.13;;;1.25;;
70406;SDS011;57821;52.202;0.154;2022-08-11T14:41:10;7.45;;;1.45;;
70406;SDS011;57821;52.202;0.154;2022-08-11T14:43:37;6.63;;;1.63;;
70406;SDS011;57821;52.202;0.154;2022-08-11T14:46:24;6.65;;;1.50;;
70406;SDS011;57821;52.202;0.154;2022-08-11T14:48:51;7.18;;;1.52;;
70406;SDS011;57821;52.202;0.154;2022-08-11T14:51:18;11.80;;;1.50;;
70406;SDS011;57821;52.202;0.154;2022-08-11T14:53:49;8.68;;;1.88;;
70406;SDS011;57821;52.202;0.154;2022-08-11T14:56:24;8.13;;;1.10;;
70406;SDS011;57821;52.202;0.154;2022-08-11T14:58:51;5.68;;;1.40;;
70406;SDS011;57821;52.202;0.154;2022-08-11T15:01:17;5.53;;;1.40;;
70406;SDS011;57821;52.202;0.154;2022-08-11T15:03:44;5.13;;;1.23;;
70406;SDS011;57821;52.202;0.154;2022-08-11T15:06:31;6.07;;;1.50;;
70406;SDS011;57821;52.202;0.154;2022-08-11T15:08:59;5.57;;;1.10;;
70406;SDS011;57821;52.202;0.154;2022-08-11T15:11:29;9.02;;;1.25;;
70406;SDS011;57821;52.202;0.154;2022-08-11T15:13:58;7.00;;;1.80;;
70406;SDS011;57821;52.202;0.154;2022-08-11T15:16:26;5.50;;;1.63;;
70406;SDS011;57821;52.202;0.154;2022-08-11T15:18:54;5.00;;;1.13;;
70406;SDS011;57821;52.202;0.154;2022-08-11T15:21:22;6.05;;;1.00;;
70406;SDS011;57821;52.202;0.154;2022-08-11T15:23:48;5.15;;;1.35;;
70406;SDS011;57821;52.202;0.154;2022-08-11T15:26:16;4.75;;;1.15;;
70406;SDS011;57821;52.202;0.154;2022-08-11T15:28:48;3.22;;;1.05;;
70406;SDS011;57821;52.202;0.154;2022-08-11T15:31:16;6.55;;;1.35;;
70406;SDS011;57821;52.202;0.154;2022-08-11T15:33:47;6.07;;;1.27;;
70406;SDS011;57821;52.202;0.154;2022-08-11T15:36:18;8.45;;;1.40;;
70406;SDS011;57821;52.202;0.154;2022-08-11T15:39:30;4.35;;;1.40;;
70406;SDS011;57821;52.202;0.154;2022-08-11T15:44:52;9.45;;;1.20;;
70406;SDS011;57821;52.202;0.154;2022-08-11T15:47:34;2.85;;;1.02;;
70406;SDS011;57821;52.202;0.154;2022-08-11T15:50:08;3.93;;;1.20;;
70406;SDS011;57821;52.202;0.154;2022-08-11T15:52:45;4.82;;;1.27;;
70406;SDS011;57821;52.202;0.154;2022-08-11T15:55:14;6.30;;;1.20;;
70406;SDS011;57821;52.202;0.154;2022-08-11T15:57:42;5.13;;;1.20;;
70406;SDS011;57821;52.202;0.154;2022-08-11T16:02:37;4.00;;;1.10;;
70406;SDS011;57821;52.202;0.154;2022-08-11T16:05:06;6.78;;;1.38;;
70406;SDS011;57821;52.202;0.154;2022-08-11T16:07:36;8.90;;;1.95;;
70406;SDS011;57821;52.202;0.154;2022-08-11T16:10:07;5.00;;;1.30;;
70406;SDS011;57821;52.202;0.154;2022-08-11T16:15:22;5.03;;;1.33;;
70406;SDS011;57821;52.202;0.154;2022-08-11T16:18:03;6.95;;;1.30;;
70406;SDS011;57821;52.202;0.154;2022-08-11T16:20:31;6.28;;;1.15;;
70406;SDS011;57821;52.202;0.154;2022-08-11T16:23:01;5.22;;;1.10;;
70406;SDS011;57821;52.202;0.154;2022-08-11T16:25:32;6.90;;;1.10;;
70406;SDS011;57821;52.202;0.154;2022-08-11T16:28:20;7.65;;;1.33;;
70406;SDS011;57821;52.202;0.154;2022-08-11T16:30:48;7.15;;;1.20;;
70406;SDS011;57821;52.202;0.154;2022-08-11T16:33:16;6.60;;;1.30;;
70406;SDS011;57821;52.202;0.154;2022-08-11T16:38:33;5.33;;;1.30;;
70406;SDS011;57821;52.202;0.154;2022-08-11T16:41:03;8.35;;;1.55;;
70406;SDS011;57821;52.202;0.154;2022-08-11T16:43:38;5.40;;;1.50;;
70406;SDS011;57821;52.202;0.154;2022-08-11T16:46:07;10.35;;;1.90;;
70406;SDS011;57821;52.202;0.154;2022-08-11T16:48:35;6.63;;;1.73;;
70406;SDS011;57821;52.202;0.154;2022-08-11T16:51:07;8.57;;;1.63;;
70406;SDS011;57821;52.202;0.154;2022-08-11T16:53:37;7.10;;;1.40;;
70406;SDS011;57821;52.202;0.154;2022-08-11T16:56:32;3.97;;;1.27;;
70406;SDS011;57821;52.202;0.154;2022-08-11T16:59:03;9.88;;;1.70;;
70406;SDS011;57821;52.202;0.154;2022-08-11T17:01:33;4.15;;;1.20;;
70406;SDS011;57821;52.202;0.154;2022-08-11T17:04:08;3.83;;;1.10;;
70406;SDS011;57821;52.202;0.154;2022-08-11T17:06:42;5.43;;;1.13;;
70406;SDS011;57821;52.202;0.154;2022-08-11T17:09:13;3.92;;;1.20;;
70406;SDS011;57821;52.202;0.154;2022-08-11T17:11:51;4.85;;;1.20;;
70406;SDS011;57821;52.202;0.154;2022-08-11T17:14:21;9.32;;;1.35;;
70406;SDS011;57821;52.202;0.154;2022-08-11T17:17:03;3.65;;;1.30;;
70406;SDS011;57821;52.202;0.154;2022-08-11T17:19:36;5.32;;;1.52;;
70406;SDS011;57821;52.202;0.154;2022-08-11T17:22:27;5.85;;;1.02;;
70406;SDS011;57821;52.202;0.154;2022-08-11T17:24:55;5.30;;;1.27;;
70406;SDS011;57821;52.202;0.154;2022-08-11T17:27:24;7.35;;;1.33;;
70406;SDS011;57821;52.202;0.154;2022-08-11T17:29:54;5.72;;;2.03;;
70406;SDS011;57821;52.202;0.154;2022-08-11T17:32:33;6.43;;;1.40;;
70406;SDS011;57821;52.202;0.154;2022-08-11T17:35:24;5.10;;;1.17;;
70406;SDS011;57821;52.202;0.154;2022-08-11T17:37:53;6.85;;;1.40;;
70406;SDS011;57821;52.202;0.154;2022-08-11T17:40:22;8.77;;;1.50;;
70406;SDS011;57821;52.202;0.154;2022-08-11T17:42:53;5.20;;;1.30;;
70406;SDS011;57821;52.202;0.154;2022-08-11T17:45:22;19.73;;;1.63;;
70406;SDS011;57821;52.202;0.154;2022-08-11T17:47:49;6.82;;;1.48;;
70406;SDS011;57821;52.202;0.154;2022-08-11T17:50:16;4.07;;;1.08;;
70406;SDS011;57821;52.202;0.154;2022-08-11T17:52:44;6.25;;;1.83;;
70406;SDS011;57821;52.202;0.154;2022-08-11T17:55:13;6.53;;;1.13;;
70406;SDS011;57821;52.202;0.154;2022-08-11T17:58:01;6.20;;;1.70;;
70406;SDS011;57821;52.202;0.154;2022-08-11T18:00:28;8.18;;;1.60;;
70406;SDS011;57821;52.202;0.154;2022-08-11T18:02:55;7.65;;;1.20;;
70406;SDS011;57821;52.202;0.154;2022-08-11T18:05:24;9.93;;;1.48;;
70406;SDS011;57821;52.202;0.154;2022-08-11T18:07:57;7.60;;;1.38;;
70406;SDS011;57821;52.202;0.154;2022-08-11T18:10:26;5.70;;;1.10;;
70406;SDS011;57821;52.202;0.154;2022-08-11T18:12:55;4.30;;;1.25;;
70406;SDS011;57821;52.202;0.154;2022-08-11T18:15:23;6.47;;;1.10;;
70406;SDS011;57821;52.202;0.154;2022-08-11T18:17:57;5.68;;;1.30;;
70406;SDS011;57821;52.202;0.154;2022-08-11T18:20:23;6.22;;;1.30;;
70406;SDS011;57821;52.202;0.154;2022-08-11T18:22:50;4.63;;;1.40;;